createdAt,value
2022-12-31T00:01:04.152Z,100
2022-12-31T00:11:04.670Z,100
2022-12-31T00:51:07.288Z,100
2022-12-31T01:21:09.731Z,100
2022-12-31T01:41:10.876Z,100
2022-12-31T01:51:11.934Z,100
2022-12-31T02:11:12.735Z,100
2022-12-31T02:21:13.194Z,100
2022-12-31T02:41:14.631Z,100
2022-12-31T02:51:15.256Z,100
2022-12-31T03:01:15.507Z,100
2022-12-31T03:11:15.582Z,100
2022-12-31T03:21:16.111Z,100
2022-12-31T03:31:16.702Z,100
2022-12-31T03:41:17.489Z,100
2022-12-31T04:01:18.888Z,100
2022-12-31T04:11:21.076Z,100
2022-12-31T04:21:20.032Z,100
2022-12-31T04:31:20.973Z,100
2022-12-31T04:41:21.784Z,100
2022-12-31T05:01:23.523Z,100
2022-12-31T05:21:24.407Z,100
2022-12-31T05:31:24.964Z,100
2022-12-31T05:51:26.447Z,100
2022-12-31T06:21:28.286Z,96
2022-12-31T06:51:30.051Z,96
2022-12-31T07:01:30.218Z,96
2022-12-31T07:31:31.193Z,93
2022-12-31T07:41:31.709Z,92
2022-12-31T08:31:34.283Z,92
2022-12-31T08:41:39.102Z,93
2022-12-31T08:51:35.959Z,92
2022-12-31T09:11:36.883Z,91
2022-12-31T09:21:37.228Z,90
2022-12-31T09:31:38.218Z,89
2022-12-31T10:01:40.039Z,91
2022-12-31T10:11:40.795Z,91
2022-12-31T10:21:41.093Z,92
2022-12-31T10:31:41.202Z,91
2022-12-31T10:41:41.452Z,90
2022-12-31T10:51:41.661Z,90
2022-12-31T11:11:43.210Z,88
2022-12-31T11:21:43.969Z,89
2022-12-31T11:31:44.279Z,88
2022-12-31T11:51:50.116Z,87
2022-12-31T12:01:45.842Z,87
2022-12-31T12:11:46.694Z,87
2022-12-31T12:21:46.757Z,86
2022-12-31T12:31:47.579Z,87
2022-12-31T12:51:48.564Z,87
2022-12-31T13:01:49.372Z,88
2022-12-31T13:11:49.981Z,91
2022-12-31T13:31:51.309Z,90
2022-12-31T13:41:52.096Z,90
2022-12-31T13:51:53.067Z,89
2022-12-31T14:01:53.600Z,88
2022-12-31T14:11:54.457Z,89
2022-12-31T14:21:55.027Z,89
2022-12-31T14:31:55.666Z,90
2022-12-31T15:01:58.196Z,85
2022-12-31T15:11:58.233Z,86
2022-12-31T15:21:58.634Z,85
2022-12-31T15:31:59.370Z,85
2022-12-31T15:52:00.571Z,89
2022-12-31T16:02:01.254Z,89
2022-12-31T16:12:01.807Z,90
2022-12-31T16:22:02.712Z,90
2022-12-31T16:32:03.148Z,90
2022-12-31T16:42:04.141Z,89
2022-12-31T16:52:04.821Z,88
2022-12-31T17:02:05.450Z,87
2022-12-31T17:12:05.709Z,85
2022-12-31T17:32:05.762Z,84
2022-12-31T17:42:06.285Z,83
2022-12-31T18:02:07.371Z,82
2022-12-31T18:12:08.240Z,82
2022-12-31T18:22:08.662Z,81
2022-12-31T18:42:10.261Z,80
2022-12-31T18:52:10.893Z,79
2022-12-31T19:02:11.244Z,79
2022-12-31T19:12:11.841Z,78
2022-12-31T19:22:12.465Z,76
2022-12-31T19:42:13.872Z,76
2022-12-31T19:52:14.178Z,75
2022-12-31T20:02:15.043Z,75
2022-12-31T20:12:15.228Z,74
2022-12-31T20:22:15.609Z,74
2022-12-31T20:32:16.515Z,74
2022-12-31T20:42:16.723Z,72
2022-12-31T20:52:17.680Z,73
2022-12-31T21:02:29.732Z,70
2022-12-31T21:22:19.383Z,68
2022-12-31T21:42:20.568Z,69
2022-12-31T21:52:21.229Z,68
2022-12-31T22:02:21.859Z,68
2022-12-31T22:12:22.310Z,68
2022-12-31T22:22:22.521Z,67
2022-12-31T22:32:22.761Z,67
2022-12-31T22:42:23.303Z,67
2022-12-31T22:52:24.197Z,67
2022-12-31T23:02:24.743Z,66
2022-12-31T23:12:25.162Z,66
2022-12-31T23:22:26.004Z,66
2022-12-31T23:32:26.860Z,66
2022-12-31T23:42:27.429Z,66
2022-12-31T23:52:27.652Z,66
